BED weather

Laurence G Hanscom Field
Bedford, Massachusetts, United States

Public forecast

Using degrees Fahrenheit for public forecast. Weather courtesy of forecast.io.

Current aviation weather report (METAR) for Laurence G Hanscom Field

Retrieved 2019/11/22 23:51 UTC (35 minutes ago):

KBED 222351Z 27014G21KT 10SM BKN055 06/M03 A2965 RMK AO2 PK WND 26026/2317 SLP055 60009 T00561028 10122 20056 53027

Aviation forecast (TAF) for Laurence G Hanscom Field

Retrieved 2019-11-23 00:27 UTC (0 seconds ago):

TAF KBED 222325Z 2300/2324 29013G24KT P6SM BKN045 FM230700 28011G22KT P6SM FEW045 FM230800 28009KT P6SM SKC FM231500 26010G20KT P6SM SKC FM232100 24007KT P6SM FEW250